Time;durP1;ratioP1;P1;durP2;ratioP2;P2;SDS_P1;SDS_P2;PMS_P1;PMS_P2;Temp;Humidity;BMP_temperature;BMP_pressure;BME280_temperature;BME280_humidity;BME280_pressure;Samples;Min_cycle;Max_cycle;Signal;HPM_P1;HPM_P2
2023/07/05 00:01:29;;;;;;;1.98;1.42;;;21.50;62.00;;;;;;6268992;28;20086;-71
2023/07/05 00:04:30;;;;;;;1.58;1.10;;;21.60;62.10;;;;;;6270013;28;20029;-71
2023/07/05 00:07:31;;;;;;;1.20;1.10;;;21.60;62.00;;;;;;6269506;28;20021;-71
2023/07/05 00:10:32;;;;;;;1.73;1.30;;;21.50;62.90;;;;;;6270009;28;20027;-71
2023/07/05 00:13:33;;;;;;;2.58;1.40;;;21.50;61.90;;;;;;6269550;28;20503;-71
2023/07/05 00:16:33;;;;;;;3.33;1.52;;;21.50;61.90;;;;;;6269598;28;20383;-71
2023/07/05 00:19:34;;;;;;;2.28;1.50;;;21.50;61.90;;;;;;6269393;28;20025;-71
2023/07/05 00:22:35;;;;;;;2.58;1.50;;;21.50;62.00;;;;;;6269307;28;20043;-71
2023/07/05 00:25:35;;;;;;;2.38;1.40;;;21.50;62.00;;;;;;6269789;28;20088;-71
2023/07/05 00:28:36;;;;;;;2.97;1.58;;;21.50;62.00;;;;;;6269278;28;20055;-71
2023/07/05 00:31:37;;;;;;;2.15;1.48;;;21.50;62.00;;;;;;6268903;28;20052;-71
2023/07/05 00:34:37;;;;;;;2.15;1.40;;;21.60;62.10;;;;;;6264518;28;20036;-71
2023/07/05 00:37:38;;;;;;;1.90;1.50;;;21.60;62.10;;;;;;6269251;28;20510;-71
2023/07/05 00:40:38;;;;;;;1.98;1.35;;;21.50;62.00;;;;;;6269473;28;20049;-71
2023/07/05 00:43:48;;;;;;;1.80;1.40;;;21.50;62.00;;;;;;6268620;28;20108;-71
2023/07/05 00:46:56;;;;;;;2.40;1.30;;;21.50;62.00;;;;;;6269029;28;20379;-71
2023/07/05 00:50:00;;;;;;;2.55;1.63;;;21.50;62.00;;;;;;6268983;28;20029;-71
2023/07/05 00:53:02;;;;;;;1.90;1.30;;;21.50;62.00;;;;;;6268861;28;20021;-71
2023/07/05 00:56:22;;;;;;;2.45;1.48;;;21.60;62.10;;;;;;6268547;28;20025;-71
2023/07/05 00:59:26;;;;;;;1.73;1.30;;;21.50;62.00;;;;;;6268284;28;20403;-71
2023/07/05 01:02:27;;;;;;;2.15;1.15;;;21.50;62.00;;;;;;6263936;28;20218;-71
2023/07/05 01:05:29;;;;;;;1.88;1.35;;;21.50;62.10;;;;;;6268148;28;20029;-71
2023/07/05 01:08:30;;;;;;;1.58;1.40;;;21.50;62.00;;;;;;6268777;28;20029;-71
2023/07/05 01:12:15;;;;;;;2.58;1.42;;;21.50;62.00;;;;;;6267559;28;20064;-71
2023/07/05 01:15:27;;;;;;;1.65;1.13;;;21.50;62.00;;;;;;6143538;29;20149;-71
2023/07/05 01:19:09;;;;;;;1.35;1.15;;;21.50;62.00;;;;;;6147897;28;20039;-71
2023/07/05 01:22:20;;;;;;;2.42;1.40;;;21.50;62.10;;;;;;6250360;28;20540;-71
2023/07/05 01:25:39;;;;;;;1.55;1.20;;;21.50;62.00;;;;;;6264912;28;20029;-72
2023/07/05 01:29:07;;;;;;;1.48;1.30;;;21.50;62.00;;;;;;6268120;28;20025;-72
2023/07/05 01:32:13;;;;;;;1.73;1.20;;;21.50;62.00;;;;;;6268015;28;20045;-71
2023/07/05 01:35:24;;;;;;;1.45;1.15;;;21.50;62.00;;;;;;6267884;28;20052;-72
2023/07/05 01:38:25;;;;;;;1.48;1.23;;;21.50;62.00;;;;;;6268024;28;20021;-71
2023/07/05 01:41:25;;;;;;;1.33;1.00;;;21.50;62.00;;;;;;6267307;28;20029;-71
2023/07/05 01:44:27;;;;;;;1.95;1.20;;;21.50;62.00;;;;;;6267972;28;20043;-71
2023/07/05 01:47:53;;;;;;;2.03;1.10;;;21.50;62.00;;;;;;6268075;28;20025;-71
2023/07/05 01:51:11;;;;;;;1.30;1.20;;;21.50;62.10;;;;;;6267847;28;20063;-71
2023/07/05 01:54:39;;;;;;;1.95;1.20;;;21.50;62.00;;;;;;6243149;28;20033;-71
2023/07/05 01:57:51;;;;;;;1.83;1.48;;;21.50;62.00;;;;;;6254625;28;20029;-71
2023/07/05 02:00:52;;;;;;;1.27;1.15;;;21.50;62.00;;;;;;6268007;28;20472;-71
2023/07/05 02:03:55;;;;;;;1.63;1.33;;;21.50;62.00;;;;;;6267443;28;20580;-71
2023/07/05 02:06:55;;;;;;;1.40;1.10;;;21.50;62.00;;;;;;6267695;28;20503;-71
2023/07/05 02:09:56;;;;;;;2.03;1.10;;;21.50;62.00;;;;;;6247599;28;20025;-71
2023/07/05 02:12:58;;;;;;;1.38;1.10;;;21.50;63.00;;;;;;6267605;28;20029;-71
2023/07/05 02:15:59;;;;;;;1.45;1.30;;;21.50;62.10;;;;;;6267715;28;20471;-71
2023/07/05 02:18:59;;;;;;;1.33;1.20;;;21.50;62.10;;;;;;6267458;28;20063;-72
2023/07/05 02:22:00;;;;;;;1.38;1.20;;;21.50;62.10;;;;;;6267196;28;20037;-71
2023/07/05 02:25:01;;;;;;;1.60;1.27;;;21.50;62.10;;;;;;6272071;28;20029;-71
2023/07/05 02:28:07;;;;;;;1.60;1.35;;;21.50;62.10;;;;;;6272332;28;20024;-71
2023/07/05 02:31:11;;;;;;;1.35;1.20;;;21.50;62.10;;;;;;6271747;28;20052;-71
2023/07/05 02:34:12;;;;;;;1.30;1.20;;;21.50;62.10;;;;;;6272380;28;20029;-71
2023/07/05 02:37:14;;;;;;;1.33;1.13;;;21.50;62.10;;;;;;6268993;28;20055;-71
2023/07/05 02:40:15;;;;;;;1.75;1.10;;;21.50;62.10;;;;;;6272127;28;20380;-71
2023/07/05 02:43:16;;;;;;;1.60;1.30;;;21.50;62.10;;;;;;6268374;28;20396;-72
2023/07/05 02:46:16;;;;;;;1.67;1.25;;;21.50;62.10;;;;;;6271616;28;20037;-71
2023/07/05 02:49:17;;;;;;;2.05;1.25;;;21.50;62.10;;;;;;6271665;28;20033;-72
2023/07/05 02:52:17;;;;;;;1.77;1.02;;;21.50;62.20;;;;;;6271054;28;20032;-72
2023/07/05 02:55:18;;;;;;;1.38;1.10;;;21.50;62.10;;;;;;6271423;28;20068;-71
2023/07/05 02:58:18;;;;;;;1.65;1.15;;;21.50;62.10;;;;;;6268113;28;20029;-71
2023/07/05 03:01:19;;;;;;;1.75;1.30;;;21.50;63.00;;;;;;6266721;28;20071;-71
2023/07/05 03:04:20;;;;;;;1.30;1.05;;;21.50;62.10;;;;;;6270489;28;20427;-71
2023/07/05 03:07:20;;;;;;;1.15;1.00;;;21.50;62.20;;;;;;6271193;28;20025;-72
2023/07/05 03:10:21;;;;;;;1.00;0.90;;;21.50;62.20;;;;;;6270994;28;20021;-71
2023/07/05 03:13:22;;;;;;;1.80;1.25;;;21.50;62.10;;;;;;6270769;28;20415;-71
2023/07/05 03:16:23;;;;;;;1.23;1.10;;;21.50;62.10;;;;;;6270819;28;20111;-71
2023/07/05 03:19:23;;;;;;;1.77;1.33;;;21.50;62.20;;;;;;6271270;28;20388;-71
2023/07/05 03:22:25;;;;;;;1.85;1.35;;;21.50;62.10;;;;;;6270505;28;20056;-71
2023/07/05 03:25:26;;;;;;;1.20;1.10;;;21.50;62.20;;;;;;6270871;28;20025;-71
2023/07/05 03:28:29;;;;;;;1.35;1.10;;;21.50;62.10;;;;;;6270594;28;20051;-71
2023/07/05 03:31:30;;;;;;;1.48;1.10;;;21.50;62.20;;;;;;6270396;28;20041;-71
2023/07/05 03:34:31;;;;;;;1.40;1.00;;;21.50;62.10;;;;;;6269607;28;20021;-71
2023/07/05 03:37:33;;;;;;;1.15;1.05;;;21.50;62.20;;;;;;6265279;28;20045;-71
2023/07/05 03:40:33;;;;;;;1.50;1.20;;;21.50;63.00;;;;;;6270622;28;20368;-71
2023/07/05 03:43:36;;;;;;;1.20;1.05;;;21.50;62.20;;;;;;6270527;28;20040;-71
2023/07/05 03:46:36;;;;;;;1.35;1.15;;;21.50;62.20;;;;;;6269975;28;20092;-71
2023/07/05 03:49:37;;;;;;;1.88;0.90;;;21.50;62.20;;;;;;6270515;28;20045;-72
2023/07/05 03:52:37;;;;;;;1.20;1.10;;;21.50;62.20;;;;;;6270087;28;20017;-71
2023/07/05 03:55:38;;;;;;;1.38;1.20;;;21.50;62.20;;;;;;6265134;28;20039;-71
2023/07/05 03:58:39;;;;;;;1.30;0.98;;;21.50;62.20;;;;;;6270531;28;20468;-71
2023/07/05 04:01:39;;;;;;;1.45;1.13;;;21.50;62.20;;;;;;6269805;28;20017;-71
2023/07/05 04:04:42;;;;;;;2.20;1.25;;;21.50;62.20;;;;;;6269993;28;20039;-71
2023/07/05 04:07:43;;;;;;;1.35;0.93;;;21.50;62.20;;;;;;6269892;28;20071;-71
2023/07/05 04:10:48;;;;;;;1.60;1.23;;;21.50;62.20;;;;;;6270220;28;20487;-71
2023/07/05 04:13:52;;;;;;;1.65;1.10;;;21.50;62.20;;;;;;6269611;28;20043;-71
2023/07/05 04:16:53;;;;;;;1.00;0.90;;;21.50;62.20;;;;;;6252363;28;20033;-71
2023/07/05 04:19:53;;;;;;;1.30;1.20;;;21.50;62.20;;;;;;6269694;28;20354;-71
2023/07/05 04:22:58;;;;;;;1.33;1.08;;;21.50;62.20;;;;;;6264812;28;20055;-71
2023/07/05 04:25:59;;;;;;;;;;;21.50;62.20;;;;;;6269725;28;20071;-71
2023/07/05 04:28:59;;;;;;;1.70;1.10;;;21.50;62.20;;;;;;6269615;28;20367;-71
2023/07/05 04:32:00;;;;;;;1.63;1.30;;;21.50;62.20;;;;;;6269034;28;20077;-71
2023/07/05 04:35:01;;;;;;;1.30;1.00;;;21.50;62.30;;;;;;6269483;28;20108;-71
2023/07/05 04:38:01;;;;;;;1.73;1.10;;;21.50;62.20;;;;;;6269600;28;20029;-71
2023/07/05 04:41:02;;;;;;;2.55;1.10;;;21.50;62.20;;;;;;6268747;28;20473;-72
2023/07/05 04:44:06;;;;;;;1.45;1.15;;;21.50;62.20;;;;;;6268985;28;20483;-71
2023/07/05 04:47:06;;;;;;;1.35;0.98;;;21.50;62.20;;;;;;6265763;28;20037;-71
2023/07/05 04:50:07;;;;;;;0.90;0.90;;;21.50;62.20;;;;;;6269000;28;20495;-72
2023/07/05 04:53:08;;;;;;;1.23;1.08;;;21.50;62.20;;;;;;6268794;28;20025;-71
2023/07/05 04:56:13;;;;;;;1.17;0.80;;;21.50;62.20;;;;;;6268569;28;20104;-71
2023/07/05 04:59:14;;;;;;;1.42;1.10;;;21.50;62.20;;;;;;6268852;28;20570;-71
2023/07/05 05:02:16;;;;;;;0.75;0.75;;;21.50;63.00;;;;;;6255919;28;20021;-71
2023/07/05 05:05:16;;;;;;;1.10;1.00;;;21.50;62.20;;;;;;6250843;28;20045;-71
2023/07/05 05:08:19;;;;;;;1.10;1.00;;;21.50;62.20;;;;;;6268125;28;20638;-72
2023/07/05 05:11:19;;;;;;;1.08;0.98;;;21.50;62.20;;;;;;6268002;28;20144;-71
2023/07/05 05:14:20;;;;;;;1.15;0.95;;;21.50;62.20;;;;;;6265259;28;20029;-71
2023/07/05 05:17:20;;;;;;;1.25;0.95;;;21.50;62.20;;;;;;6252129;28;20537;-71
2023/07/05 05:20:21;;;;;;;1.20;1.00;;;21.50;62.20;;;;;;6264465;28;20025;-71
2023/07/05 05:23:22;;;;;;;1.48;1.10;;;21.50;62.20;;;;;;6267016;28;20472;-71
2023/07/05 05:26:23;;;;;;;1.38;1.00;;;21.50;62.20;;;;;;6266686;28;20056;-71
2023/07/05 05:29:23;;;;;;;1.27;1.15;;;21.50;62.20;;;;;;6250729;28;20025;-71
2023/07/05 05:32:24;;;;;;;1.25;0.95;;;21.50;62.20;;;;;;6267677;28;20025;-71
2023/07/05 05:35:24;;;;;;;1.17;0.90;;;21.50;62.30;;;;;;6266365;28;20025;-71
2023/07/05 05:38:25;;;;;;;1.05;0.90;;;21.50;62.20;;;;;;6267280;28;20021;-71
2023/07/05 05:41:26;;;;;;;1.00;0.88;;;21.50;62.20;;;;;;6266397;28;20045;-71
2023/07/05 05:44:26;;;;;;;0.90;0.90;;;21.50;62.20;;;;;;6267507;28;20040;-71
2023/07/05 05:47:27;;;;;;;1.00;0.82;;;21.50;62.20;;;;;;6248894;28;20035;-71
2023/07/05 05:50:27;;;;;;;1.45;1.02;;;21.50;62.30;;;;;;6266821;28;20028;-71
2023/07/05 05:53:28;;;;;;;1.55;1.05;;;21.50;62.20;;;;;;6266543;28;20127;-71
2023/07/05 05:56:28;;;;;;;1.23;1.00;;;21.50;62.10;;;;;;6266995;28;20354;-71
2023/07/05 05:59:29;;;;;;;1.15;1.00;;;21.50;62.10;;;;;;6263391;28;20434;-71
2023/07/05 06:02:30;;;;;;;1.52;1.20;;;21.50;62.10;;;;;;6268534;28;20075;-71
2023/07/05 06:05:32;;;;;;;1.20;1.00;;;21.50;62.10;;;;;;6254365;28;20059;-71
2023/07/05 06:08:33;;;;;;;1.17;1.00;;;21.50;62.10;;;;;;6269126;28;20028;-71
2023/07/05 06:11:33;;;;;;;1.10;1.00;;;21.50;62.10;;;;;;6265055;28;20100;-71
2023/07/05 06:14:34;;;;;;;1.42;0.98;;;21.50;62.10;;;;;;6243945;28;20455;-71
2023/07/05 06:17:34;;;;;;;2.28;1.30;;;21.50;62.00;;;;;;6267559;28;20676;-71
2023/07/05 06:20:35;;;;;;;0.93;0.82;;;21.50;62.10;;;;;;6268534;28;20105;-71
2023/07/05 06:23:36;;;;;;;1.73;1.20;;;21.50;62.10;;;;;;6249533;28;20037;-71
2023/07/05 06:26:36;;;;;;;1.27;1.15;;;21.50;62.10;;;;;;6257927;28;20030;-71
2023/07/05 06:29:38;;;;;;;1.90;1.33;;;21.60;62.00;;;;;;6243211;28;20057;-71
2023/07/05 06:32:38;;;;;;;3.13;1.33;;;21.60;61.80;;;;;;6261524;28;20037;-71
2023/07/05 06:35:39;;;;;;;3.42;1.20;;;21.60;61.70;;;;;;6268195;28;20028;-71
2023/07/05 06:38:40;;;;;;;2.17;1.00;;;21.60;61.80;;;;;;6268388;28;20110;-71
2023/07/05 06:41:41;;;;;;;3.25;1.10;;;21.70;61.80;;;;;;6267750;28;20025;-71
2023/07/05 06:44:41;;;;;;;3.58;1.17;;;21.70;61.30;;;;;;6268545;28;20035;-72
2023/07/05 06:47:42;;;;;;;1.80;1.00;;;21.70;59.00;;;;;;6267614;28;20036;-71
2023/07/05 06:50:43;;;;;;;3.75;1.02;;;21.80;58.30;;;;;;6268627;28;20027;-71
2023/07/05 06:53:44;;;;;;;1.45;1.10;;;21.90;57.70;;;;;;6267897;28;20426;-71
2023/07/05 06:56:44;;;;;;;2.65;1.50;;;22.00;57.30;;;;;;6268145;28;20534;-71
2023/07/05 06:59:45;;;;;;;2.20;1.42;;;22.00;56.90;;;;;;6258948;28;20501;-71
2023/07/05 07:02:45;;;;;;;2.70;1.20;;;22.10;56.50;;;;;;6267497;28;20079;-71
2023/07/05 07:05:54;;;;;;;3.10;1.30;;;22.30;56.40;;;;;;6258316;28;20029;-71
2023/07/05 07:08:55;;;;;;;2.20;1.10;;;22.30;55.90;;;;;;6258363;28;20025;-71
2023/07/05 07:11:55;;;;;;;2.50;1.30;;;22.40;55.60;;;;;;6258874;28;20415;-71
2023/07/05 07:14:56;;;;;;;1.63;1.23;;;22.40;55.50;;;;;;6254540;28;20029;-71
2023/07/05 07:17:57;;;;;;;1.17;1.00;;;22.50;55.30;;;;;;6270589;28;20032;-71
2023/07/05 07:20:59;;;;;;;3.15;1.10;;;22.50;55.30;;;;;;6272688;28;20028;-71
2023/07/05 07:24:00;;;;;;;1.95;1.05;;;22.50;55.00;;;;;;6271460;28;20110;-71
2023/07/05 07:27:00;;;;;;;1.75;1.10;;;22.50;55.60;;;;;;6262482;28;20033;-71
2023/07/05 07:30:01;;;;;;;1.13;0.90;;;22.50;54.80;;;;;;6272024;28;20053;-71
2023/07/05 07:33:02;;;;;;;1.50;1.10;;;22.50;54.70;;;;;;6271351;28;20062;-71
2023/07/05 07:36:20;;;;;;;1.05;0.90;;;22.50;54.60;;;;;;6268589;28;20035;-71
2023/07/05 07:39:21;;;;;;;2.22;1.30;;;22.60;54.50;;;;;;6271048;28;20024;-71
2023/07/05 07:42:21;;;;;;;2.50;1.08;;;22.60;54.40;;;;;;6271189;28;20104;-71
2023/07/05 07:45:22;;;;;;;1.65;0.90;;;22.60;54.20;;;;;;6271961;28;20025;-71
2023/07/05 07:48:22;;;;;;;1.85;1.05;;;22.60;54.30;;;;;;6270734;28;20044;-71
2023/07/05 07:51:27;;;;;;;1.42;1.10;;;22.50;54.20;;;;;;6271655;28;20039;-71
2023/07/05 07:54:30;;;;;;;2.05;1.00;;;22.60;54.20;;;;;;6270955;28;20016;-71
2023/07/05 07:57:31;;;;;;;4.20;1.20;;;22.60;54.10;;;;;;6271197;28;20060;-71
2023/07/05 08:00:31;;;;;;;1.65;1.13;;;22.60;53.90;;;;;;6271223;28;20391;-71
2023/07/05 08:03:32;;;;;;;1.45;1.00;;;22.60;54.10;;;;;;6270015;28;20040;-71
2023/07/05 08:06:43;;;;;;;2.03;1.40;;;22.60;53.90;;;;;;6270748;28;20029;-71
2023/07/05 08:09:49;;;;;;;1.65;1.30;;;22.60;53.80;;;;;;6270594;28;20021;-71
2023/07/05 08:12:50;;;;;;;2.13;1.20;;;22.60;53.80;;;;;;6252672;28;20507;-71
2023/07/05 08:15:51;;;;;;;4.78;1.17;;;22.60;53.70;;;;;;6270842;28;20067;-70
2023/07/05 08:18:52;;;;;;;1.65;1.10;;;22.60;53.60;;;;;;6270474;28;20027;-70
2023/07/05 08:21:52;;;;;;;1.88;1.20;;;22.60;53.60;;;;;;6265593;28;20496;-71
2023/07/05 08:24:53;;;;;;;1.15;1.02;;;22.60;53.60;;;;;;6270666;28;20156;-71
2023/07/05 08:27:54;;;;;;;1.92;1.55;;;22.60;53.50;;;;;;6270737;28;20029;-71
2023/07/05 08:30:58;;;;;;;1.70;1.30;;;22.60;53.50;;;;;;6270347;28;20051;-71
2023/07/05 08:33:58;;;;;;;1.20;1.10;;;22.60;53.60;;;;;;6270480;28;20534;-71
2023/07/05 08:36:59;;;;;;;1.90;1.25;;;22.60;53.40;;;;;;6253065;28;20013;-71
2023/07/05 08:40:00;;;;;;;1.17;1.00;;;22.60;53.30;;;;;;6269637;28;20021;-71
2023/07/05 08:43:11;;;;;;;4.90;1.25;;;22.60;53.10;;;;;;6270191;28;20064;-71
2023/07/05 08:46:14;;;;;;;1.88;1.42;;;22.60;53.20;;;;;;6269731;28;20019;-71
2023/07/05 08:49:22;;;;;;;2.03;1.40;;;22.60;53.20;;;;;;6269878;28;20057;-71
2023/07/05 08:52:27;;;;;;;2.95;1.65;;;22.60;53.10;;;;;;6267165;28;20029;-70
2023/07/05 08:55:47;;;;;;;1.50;1.20;;;22.60;53.10;;;;;;6269752;28;20025;-71
2023/07/05 08:58:56;;;;;;;2.10;1.33;;;22.70;53.10;;;;;;6252113;28;20025;-71
2023/07/05 09:01:57;;;;;;;1.90;1.33;;;22.60;53.00;;;;;;6270034;28;20055;-71
2023/07/05 09:04:58;;;;;;;1.73;1.35;;;22.60;53.00;;;;;;6269499;28;20039;-71
2023/07/05 09:08:23;;;;;;;1.90;1.38;;;22.70;52.90;;;;;;6269687;28;20072;-71
2023/07/05 09:11:36;;;;;;;1.73;1.25;;;22.70;52.90;;;;;;6258131;28;20037;-71
2023/07/05 09:14:54;;;;;;;2.00;1.38;;;22.60;52.80;;;;;;6268584;28;20017;-71
2023/07/05 09:18:19;;;;;;;2.42;1.40;;;22.60;52.70;;;;;;6243304;28;20030;-71
2023/07/05 09:21:45;;;;;;;1.97;1.30;;;22.60;52.60;;;;;;6267605;28;20031;-71
2023/07/05 09:24:46;;;;;;;1.20;1.10;;;22.60;53.40;;;;;;6259641;28;20315;-71
2023/07/05 09:28:00;;;;;;;1.70;1.38;;;22.60;52.60;;;;;;6269596;28;20500;-72
2023/07/05 09:31:01;;;;;;;1.48;1.10;;;22.70;52.60;;;;;;6268596;28;20470;-72
2023/07/05 09:34:40;;;;;;;1.13;1.02;;;22.70;52.60;;;;;;6265079;28;20039;-71
2023/07/05 09:37:48;;;;;;;1.83;1.45;;;22.70;52.50;;;;;;6269385;28;20623;-71
2023/07/05 09:41:34;;;;;;;2.38;1.70;;;22.70;52.50;;;;;;6268560;28;20446;-71
2023/07/05 09:44:35;;;;;;;2.28;1.50;;;22.70;52.30;;;;;;6250898;28;20078;-71
2023/07/05 09:47:35;;;;;;;3.15;1.42;;;22.70;52.30;;;;;;6269257;28;20036;-71
2023/07/05 09:50:48;;;;;;;1.55;1.30;;;22.70;52.30;;;;;;6268883;28;20027;-71
2023/07/05 09:53:55;;;;;;;2.03;1.35;;;22.70;52.30;;;;;;6261555;28;20048;-70
2023/07/05 09:57:01;;;;;;;1.40;1.20;;;22.70;52.20;;;;;;6267963;28;20100;-70
2023/07/05 10:00:04;;;;;;;1.95;1.60;;;22.70;52.40;;;;;;6257532;28;20056;-71
2023/07/05 10:03:21;;;;;;;2.00;1.50;;;22.70;52.30;;;;;;6269205;28;20033;-70
2023/07/05 10:06:27;;;;;;;1.95;1.50;;;22.70;52.20;;;;;;6268525;28;20108;-70
2023/07/05 10:09:28;;;;;;;2.83;1.60;;;22.70;52.20;;;;;;6255663;28;20021;-71
2023/07/05 10:12:34;;;;;;;2.47;1.73;;;22.70;52.10;;;;;;6250258;28;20033;-70
2023/07/05 10:15:45;;;;;;;1.85;1.40;;;22.70;52.10;;;;;;6257454;28;20415;-70
2023/07/05 10:18:45;;;;;;;1.98;1.40;;;22.70;52.10;;;;;;6269169;28;20071;-70
2023/07/05 10:21:52;;;;;;;1.63;1.33;;;22.70;52.10;;;;;;6258302;28;20029;-70
2023/07/05 10:25:00;;;;;;;1.83;1.35;;;22.70;52.00;;;;;;6268133;28;20029;-70
2023/07/05 10:28:03;;;;;;;1.75;1.40;;;22.70;52.00;;;;;;6269124;28;20222;-70
2023/07/05 10:31:05;;;;;;;2.05;1.33;;;22.70;51.90;;;;;;6268190;28;20078;-70
2023/07/05 10:34:18;;;;;;;1.63;1.33;;;22.70;52.10;;;;;;6263943;28;20067;-70
2023/07/05 10:37:28;;;;;;;2.70;1.50;;;22.70;52.00;;;;;;6267961;28;20025;-71
2023/07/05 10:40:31;;;;;;;2.10;1.50;;;22.70;51.90;;;;;;6267848;28;20024;-70
2023/07/05 10:43:32;;;;;;;1.98;1.27;;;22.70;51.80;;;;;;6244103;28;20308;-70
2023/07/05 10:46:36;;;;;;;1.42;1.27;;;22.70;51.80;;;;;;6271595;28;20475;-70
2023/07/05 10:49:38;;;;;;;2.10;1.53;;;22.70;51.80;;;;;;6273185;28;20024;-70
2023/07/05 10:52:48;;;;;;;1.90;1.38;;;22.70;51.70;;;;;;6264354;28;20075;-70
2023/07/05 10:56:09;;;;;;;1.75;1.38;;;22.70;51.80;;;;;;6272367;28;20025;-70
2023/07/05 10:59:38;;;;;;;1.77;1.38;;;22.80;51.70;;;;;;6273595;28;20055;-70
2023/07/05 11:02:45;;;;;;;1.90;1.50;;;22.70;51.70;;;;;;6272668;28;20178;-70
2023/07/05 11:05:49;;;;;;;2.95;1.60;;;22.70;51.60;;;;;;6267496;28;20483;-70
2023/07/05 11:08:49;;;;;;;2.08;1.40;;;22.70;51.60;;;;;;6270212;28;20013;-70
2023/07/05 11:11:57;;;;;;;1.50;1.27;;;22.80;51.60;;;;;;6268190;28;20483;-70
2023/07/05 11:14:59;;;;;;;1.70;1.40;;;22.70;51.50;;;;;;6271741;28;20036;-70
2023/07/05 11:18:00;;;;;;;1.42;1.15;;;22.70;51.60;;;;;;6271827;28;20064;-70
2023/07/05 11:21:02;;;;;;;2.13;1.50;;;22.70;51.50;;;;;;6270406;28;20074;-70
2023/07/05 11:24:06;;;;;;;1.92;1.50;;;22.80;51.60;;;;;;6263512;28;20091;-70
2023/07/05 11:27:46;;;;;;;1.83;1.27;;;22.70;51.50;;;;;;6254917;28;20021;-70
2023/07/05 11:30:47;;;;;;;1.50;1.15;;;22.80;51.40;;;;;;6258967;28;20072;-71
2023/07/05 11:34:25;;;;;;;2.95;1.25;;;22.80;51.40;;;;;;6266790;28;20029;-70
2023/07/05 11:37:26;;;;;;;1.33;1.20;;;22.80;51.40;;;;;;6270214;28;20411;-70
2023/07/05 11:40:55;;;;;;;1.52;1.42;;;22.80;51.40;;;;;;6270977;28;20055;-70
2023/07/05 11:44:03;;;;;;;2.88;1.27;;;22.70;51.40;;;;;;6246004;28;20022;-70
2023/07/05 11:47:04;;;;;;;1.55;1.30;;;22.70;51.40;;;;;;6259951;28;20426;-70
2023/07/05 11:50:07;;;;;;;1.25;1.15;;;22.70;51.30;;;;;;6227901;28;20033;-70
2023/07/05 11:53:13;;;;;;;1.73;1.33;;;22.80;51.40;;;;;;6237411;28;20547;-70
2023/07/05 11:56:15;;;;;;;1.40;1.20;;;22.70;51.30;;;;;;6245240;28;20113;-71
2023/07/05 11:59:20;;;;;;;2.33;1.25;;;22.70;51.30;;;;;;6270962;28;20021;-70
2023/07/05 12:03:06;;;;;;;1.45;1.33;;;22.80;51.40;;;;;;6270341;28;20540;-70
2023/07/05 12:06:23;;;;;;;1.42;1.20;;;22.70;51.20;;;;;;6232654;28;20041;-70
2023/07/05 12:09:34;;;;;;;2.10;1.40;;;22.80;51.30;;;;;;6261843;28;20025;-70
2023/07/05 12:12:39;;;;;;;1.60;1.30;;;22.80;51.30;;;;;;6248545;28;20422;-71
2023/07/05 12:15:41;;;;;;;1.60;1.20;;;22.80;51.20;;;;;;6252242;28;20029;-70
2023/07/05 12:18:42;;;;;;;1.73;1.27;;;22.70;51.20;;;;;;6250767;28;20036;-70
2023/07/05 12:21:59;;;;;;;1.00;0.90;;;22.80;51.30;;;;;;6251368;28;20028;-70
2023/07/05 12:25:00;;;;;;;1.00;0.90;;;22.80;51.20;;;;;;6252301;28;20127;-70
2023/07/05 12:28:02;;;;;;;1.30;1.10;;;22.70;51.10;;;;;;6251879;28;20387;-70
2023/07/05 12:31:10;;;;;;;1.50;1.30;;;22.80;51.10;;;;;;6269313;28;20060;-70
2023/07/05 12:34:19;;;;;;;1.40;1.05;;;22.80;51.20;;;;;;6250989;28;20032;-70
2023/07/05 12:37:30;;;;;;;1.60;1.30;;;22.70;51.00;;;;;;6269044;28;20021;-70
2023/07/05 12:40:40;;;;;;;1.25;1.00;;;22.70;51.00;;;;;;6269846;28;20025;-70
2023/07/05 12:43:40;;;;;;;1.38;1.05;;;22.80;51.10;;;;;;6269225;28;20507;-70
2023/07/05 12:46:42;;;;;;;1.10;1.00;;;22.80;51.10;;;;;;6269408;28;20025;-70
2023/07/05 12:49:43;;;;;;;1.85;1.08;;;22.80;51.70;;;;;;6269360;28;20021;-71
2023/07/05 12:52:47;;;;;;;1.08;0.98;;;22.70;51.00;;;;;;6269041;28;20051;-70
2023/07/05 12:55:59;;;;;;;1.00;0.90;;;22.70;50.90;;;;;;6266684;28;20029;-70
2023/07/05 12:59:03;;;;;;;1.25;1.08;;;22.80;50.90;;;;;;6268874;28;20021;-70
2023/07/05 13:02:05;;;;;;;1.50;1.17;;;22.70;50.80;;;;;;6269557;28;20029;-71
2023/07/05 13:05:06;;;;;;;2.92;0.93;;;22.80;51.30;;;;;;6268845;28;20036;-71
2023/07/05 13:08:08;;;;;;;0.85;0.80;;;22.80;50.90;;;;;;6268201;28;20383;-70
2023/07/05 13:11:15;;;;;;;1.42;1.05;;;22.70;50.80;;;;;;6268593;28;20036;-70
2023/07/05 13:14:28;;;;;;;1.35;1.00;;;22.80;50.90;;;;;;6268431;28;20021;-70
2023/07/05 13:17:35;;;;;;;1.50;1.10;;;22.80;50.80;;;;;;6247290;28;20439;-70
2023/07/05 13:20:36;;;;;;;1.77;1.17;;;22.80;50.90;;;;;;6269343;28;20053;-71
2023/07/05 13:23:43;;;;;;;2.88;1.05;;;22.80;50.70;;;;;;6267010;28;20498;-70
2023/07/05 13:26:44;;;;;;;1.20;1.05;;;22.80;50.80;;;;;;6268715;28;20365;-70
2023/07/05 13:29:45;;;;;;;1.80;1.15;;;22.70;50.70;;;;;;6268211;28;20045;-70
2023/07/05 13:32:53;;;;;;;2.50;1.35;;;22.70;50.70;;;;;;6267193;28;20040;-70
2023/07/05 13:35:53;;;;;;;1.88;1.35;;;22.70;50.70;;;;;;6250228;28;20115;-70
2023/07/05 13:38:54;;;;;;;1.02;0.85;;;22.80;50.80;;;;;;6267682;28;20031;-70
2023/07/05 13:41:58;;;;;;;1.63;1.13;;;22.70;50.70;;;;;;6268127;28;20104;-72
2023/07/05 13:44:58;;;;;;;1.63;1.13;;;22.80;50.70;;;;;;6268433;28;20245;-70
2023/07/05 13:48:00;;;;;;;1.67;1.10;;;22.70;50.60;;;;;;6267386;28;20036;-70
2023/07/05 13:51:02;;;;;;;1.45;1.13;;;22.70;50.60;;;;;;6268147;28;20021;-70
2023/07/05 13:54:03;;;;;;;1.77;1.10;;;22.80;50.60;;;;;;6267955;28;20436;-70
2023/07/05 13:57:04;;;;;;;1.30;1.02;;;22.80;50.50;;;;;;6240058;28;20122;-70
2023/07/05 14:00:09;;;;;;;1.10;0.93;;;22.80;50.50;;;;;;6250440;28;20029;-70
2023/07/05 14:03:10;;;;;;;;;;;22.80;50.40;;;;;;6253374;28;20044;-70
2023/07/05 14:06:18;;;;;;;1.33;1.08;;;22.80;50.40;;;;;;6267784;28;19983;-70
2023/07/05 14:09:19;;;;;;;1.42;0.95;;;22.80;50.40;;;;;;6267060;28;20032;-70
2023/07/05 14:12:20;;;;;;;2.60;0.95;;;22.80;50.50;;;;;;6267351;28;20029;-70
2023/07/05 14:15:40;;;;;;;1.10;1.00;;;22.80;50.50;;;;;;6257986;28;20029;-70
2023/07/05 14:18:41;;;;;;;1.40;1.15;;;22.80;50.50;;;;;;6243181;28;20035;-70
2023/07/05 14:21:43;;;;;;;1.67;1.00;;;22.80;50.40;;;;;;6272499;28;20391;-70
2023/07/05 14:24:48;;;;;;;1.63;1.02;;;22.80;50.30;;;;;;6249349;28;20442;-70
2023/07/05 14:27:49;;;;;;;1.40;1.02;;;22.80;50.40;;;;;;6246975;28;20030;-70
2023/07/05 14:30:51;;;;;;;1.00;0.90;;;22.80;50.40;;;;;;6260332;28;20049;-72
2023/07/05 14:33:51;;;;;;;1.45;1.13;;;22.80;50.30;;;;;;6273438;28;20032;-70
2023/07/05 14:36:52;;;;;;;1.30;1.05;;;22.80;50.40;;;;;;6271618;28;20017;-70
2023/07/05 14:39:53;;;;;;;2.00;0.90;;;22.80;50.40;;;;;;6264279;28;20082;-71
2023/07/05 14:42:53;;;;;;;1.25;1.08;;;22.80;50.40;;;;;;6274748;28;20032;-71
2023/07/05 14:45:54;;;;;;;1.63;1.23;;;22.80;50.40;;;;;;6255111;28;20120;-70
2023/07/05 14:48:54;;;;;;;1.33;1.00;;;22.80;50.30;;;;;;6254305;28;20021;-70
2023/07/05 14:51:55;;;;;;;1.60;1.00;;;22.80;50.40;;;;;;6269713;28;20436;-70
2023/07/05 14:54:55;;;;;;;1.10;0.85;;;22.80;50.30;;;;;;6252157;28;20040;-71
2023/07/05 14:57:57;;;;;;;1.40;0.93;;;22.80;50.20;;;;;;6271710;28;20064;-70
2023/07/05 15:00:58;;;;;;;1.48;0.85;;;22.80;50.20;;;;;;6271470;28;20098;-71
2023/07/05 15:03:59;;;;;;;2.13;1.00;;;22.80;50.10;;;;;;6254685;28;20041;-70
2023/07/05 15:06:59;;;;;;;1.50;1.00;;;22.90;50.30;;;;;;6269376;28;20310;-70
2023/07/05 15:10:00;;;;;;;1.02;0.93;;;22.80;50.10;;;;;;6269125;28;20024;-70
2023/07/05 15:13:01;;;;;;;1.27;1.00;;;22.90;50.20;;;;;;6271848;28;20021;-70
2023/07/05 15:16:03;;;;;;;1.15;0.93;;;22.80;50.10;;;;;;6271542;28;20032;-71
2023/07/05 15:19:04;;;;;;;1.42;1.00;;;22.80;50.20;;;;;;6271417;28;20033;-70
2023/07/05 15:22:05;;;;;;;1.13;1.00;;;22.80;50.10;;;;;;6271086;28;20021;-70
2023/07/05 15:25:05;;;;;;;0.90;0.77;;;22.80;50.10;;;;;;6271448;28;20029;-70
2023/07/05 15:28:07;;;;;;;1.02;0.90;;;22.80;50.10;;;;;;6271403;28;20035;-70
2023/07/05 15:31:09;;;;;;;1.13;1.00;;;22.90;50.20;;;;;;6269305;28;20053;-70
2023/07/05 15:34:10;;;;;;;1.77;1.10;;;22.80;50.00;;;;;;6271193;28;20468;-71
2023/07/05 15:37:11;;;;;;;1.38;1.05;;;22.80;50.00;;;;;;6270626;28;20032;-70
2023/07/05 15:40:12;;;;;;;0.80;0.80;;;22.90;50.20;;;;;;6270927;28;20424;-71
2023/07/05 15:43:13;;;;;;;2.17;1.10;;;22.80;50.10;;;;;;6270491;28;20047;-70
2023/07/05 15:46:13;;;;;;;1.42;1.10;;;22.80;50.10;;;;;;6270637;28;20033;-70
2023/07/05 15:49:14;;;;;;;1.50;1.10;;;22.80;50.00;;;;;;6270805;28;20021;-70
2023/07/05 15:52:15;;;;;;;2.97;0.90;;;22.80;50.00;;;;;;6268715;28;20724;-71
2023/07/05 15:55:16;;;;;;;1.10;0.85;;;22.90;50.10;;;;;;6247393;28;20080;-70
2023/07/05 15:58:19;;;;;;;0.95;0.85;;;22.80;50.00;;;;;;6261163;28;20055;-70
2023/07/05 16:01:25;;;;;;;0.60;0.57;;;22.80;50.00;;;;;;6270537;28;20024;-70